sensor_id;sensor_type;location;lat;lon;timestamp;P1;durP1;ratioP1;P2;durP2;ratioP2
29344;SDS011;16339;48.748;2.222;2024-02-04T00:01:11;4.97;;;2.00;;
29344;SDS011;16339;48.748;2.222;2024-02-04T00:03:40;6.13;;;1.33;;
29344;SDS011;16339;48.748;2.222;2024-02-04T00:06:09;3.45;;;1.60;;
29344;SDS011;16339;48.748;2.222;2024-02-04T00:08:41;9.90;;;1.50;;
29344;SDS011;16339;48.748;2.222;2024-02-04T00:11:13;9.48;;;2.13;;
29344;SDS011;16339;48.748;2.222;2024-02-04T00:13:42;6.95;;;2.33;;
29344;SDS011;16339;48.748;2.222;2024-02-04T00:16:13;4.55;;;2.35;;
29344;SDS011;16339;48.748;2.222;2024-02-04T00:18:44;6.80;;;2.60;;
29344;SDS011;16339;48.748;2.222;2024-02-04T00:21:13;12.18;;;2.80;;
29344;SDS011;16339;48.748;2.222;2024-02-04T00:23:44;12.30;;;2.58;;
29344;SDS011;16339;48.748;2.222;2024-02-04T00:26:16;7.43;;;2.08;;
29344;SDS011;16339;48.748;2.222;2024-02-04T00:28:45;7.28;;;1.60;;
29344;SDS011;16339;48.748;2.222;2024-02-04T00:31:14;11.40;;;2.25;;
29344;SDS011;16339;48.748;2.222;2024-02-04T00:33:43;19.85;;;2.45;;
29344;SDS011;16339;48.748;2.222;2024-02-04T00:36:14;9.18;;;1.88;;
29344;SDS011;16339;48.748;2.222;2024-02-04T00:38:46;4.55;;;1.67;;
29344;SDS011;16339;48.748;2.222;2024-02-04T00:41:15;7.07;;;1.88;;
29344;SDS011;16339;48.748;2.222;2024-02-04T00:43:43;7.70;;;2.35;;
29344;SDS011;16339;48.748;2.222;2024-02-04T00:46:12;9.90;;;1.70;;
29344;SDS011;16339;48.748;2.222;2024-02-04T00:48:41;4.80;;;1.67;;
29344;SDS011;16339;48.748;2.222;2024-02-04T00:51:10;4.43;;;1.60;;
29344;SDS011;16339;48.748;2.222;2024-02-04T00:53:39;3.95;;;1.67;;
29344;SDS011;16339;48.748;2.222;2024-02-04T00:56:10;2.92;;;1.70;;
29344;SDS011;16339;48.748;2.222;2024-02-04T01:01:07;10.02;;;2.08;;
29344;SDS011;16339;48.748;2.222;2024-02-04T01:03:36;3.78;;;1.60;;
29344;SDS011;16339;48.748;2.222;2024-02-04T01:06:05;5.38;;;2.10;;
29344;SDS011;16339;48.748;2.222;2024-02-04T01:08:33;7.53;;;1.85;;
29344;SDS011;16339;48.748;2.222;2024-02-04T01:11:03;10.57;;;2.40;;
29344;SDS011;16339;48.748;2.222;2024-02-04T01:13:35;7.75;;;2.10;;
29344;SDS011;16339;48.748;2.222;2024-02-04T01:16:04;16.40;;;3.00;;
29344;SDS011;16339;48.748;2.222;2024-02-04T01:18:34;7.82;;;1.90;;
29344;SDS011;16339;48.748;2.222;2024-02-04T01:21:02;13.98;;;1.95;;
29344;SDS011;16339;48.748;2.222;2024-02-04T01:23:33;6.93;;;1.98;;
29344;SDS011;16339;48.748;2.222;2024-02-04T01:26:02;9.43;;;1.77;;
29344;SDS011;16339;48.748;2.222;2024-02-04T01:28:31;13.15;;;2.13;;
29344;SDS011;16339;48.748;2.222;2024-02-04T01:31:03;13.57;;;2.90;;
29344;SDS011;16339;48.748;2.222;2024-02-04T01:33:32;6.72;;;1.88;;
29344;SDS011;16339;48.748;2.222;2024-02-04T01:36:00;7.22;;;1.77;;
29344;SDS011;16339;48.748;2.222;2024-02-04T01:38:29;8.10;;;3.15;;
29344;SDS011;16339;48.748;2.222;2024-02-04T01:40:58;14.85;;;1.95;;
29344;SDS011;16339;48.748;2.222;2024-02-04T01:43:26;6.80;;;1.85;;
29344;SDS011;16339;48.748;2.222;2024-02-04T01:45:56;8.13;;;1.80;;
29344;SDS011;16339;48.748;2.222;2024-02-04T01:48:29;4.63;;;1.83;;
29344;SDS011;16339;48.748;2.222;2024-02-04T01:53:28;9.57;;;2.05;;
29344;SDS011;16339;48.748;2.222;2024-02-04T01:55:57;5.15;;;2.42;;
29344;SDS011;16339;48.748;2.222;2024-02-04T01:58:26;9.43;;;2.30;;
29344;SDS011;16339;48.748;2.222;2024-02-04T02:00:55;14.23;;;3.15;;
29344;SDS011;16339;48.748;2.222;2024-02-04T02:03:24;9.48;;;1.80;;
29344;SDS011;16339;48.748;2.222;2024-02-04T02:05:56;6.93;;;2.30;;
29344;SDS011;16339;48.748;2.222;2024-02-04T02:08:25;6.57;;;1.95;;
29344;SDS011;16339;48.748;2.222;2024-02-04T02:10:57;13.38;;;1.88;;
29344;SDS011;16339;48.748;2.222;2024-02-04T02:13:30;10.13;;;1.67;;
29344;SDS011;16339;48.748;2.222;2024-02-04T02:16:04;7.05;;;1.80;;
29344;SDS011;16339;48.748;2.222;2024-02-04T02:18:42;7.88;;;2.00;;
29344;SDS011;16339;48.748;2.222;2024-02-04T02:21:19;10.02;;;2.55;;
29344;SDS011;16339;48.748;2.222;2024-02-04T02:24:07;5.55;;;2.45;;
29344;SDS011;16339;48.748;2.222;2024-02-04T02:26:43;6.85;;;3.22;;
29344;SDS011;16339;48.748;2.222;2024-02-04T02:29:12;9.70;;;2.80;;
29344;SDS011;16339;48.748;2.222;2024-02-04T02:31:41;7.18;;;2.67;;
29344;SDS011;16339;48.748;2.222;2024-02-04T02:34:11;9.52;;;1.80;;
29344;SDS011;16339;48.748;2.222;2024-02-04T02:36:41;5.80;;;2.10;;
29344;SDS011;16339;48.748;2.222;2024-02-04T02:39:17;7.65;;;1.60;;
29344;SDS011;16339;48.748;2.222;2024-02-04T02:41:53;12.05;;;2.22;;
29344;SDS011;16339;48.748;2.222;2024-02-04T02:44:25;8.07;;;2.25;;
29344;SDS011;16339;48.748;2.222;2024-02-04T02:46:55;6.00;;;1.98;;
29344;SDS011;16339;48.748;2.222;2024-02-04T02:49:27;7.85;;;2.78;;
29344;SDS011;16339;48.748;2.222;2024-02-04T02:51:58;5.70;;;3.15;;
29344;SDS011;16339;48.748;2.222;2024-02-04T02:54:27;6.10;;;3.03;;
29344;SDS011;16339;48.748;2.222;2024-02-04T02:56:58;5.70;;;1.67;;
29344;SDS011;16339;48.748;2.222;2024-02-04T03:01:59;10.73;;;2.35;;
29344;SDS011;16339;48.748;2.222;2024-02-04T03:04:28;4.32;;;1.65;;
29344;SDS011;16339;48.748;2.222;2024-02-04T03:06:57;8.60;;;2.10;;
29344;SDS011;16339;48.748;2.222;2024-02-04T03:09:26;8.40;;;2.78;;
29344;SDS011;16339;48.748;2.222;2024-02-04T03:11:59;12.98;;;3.55;;
29344;SDS011;16339;48.748;2.222;2024-02-04T03:14:28;10.85;;;1.48;;
29344;SDS011;16339;48.748;2.222;2024-02-04T03:16:57;5.95;;;2.85;;
29344;SDS011;16339;48.748;2.222;2024-02-04T03:19:25;4.53;;;1.85;;
29344;SDS011;16339;48.748;2.222;2024-02-04T03:21:54;4.80;;;1.70;;
29344;SDS011;16339;48.748;2.222;2024-02-04T03:24:25;5.65;;;1.80;;
29344;SDS011;16339;48.748;2.222;2024-02-04T03:26:54;5.90;;;1.80;;
29344;SDS011;16339;48.748;2.222;2024-02-04T03:29:25;10.70;;;2.08;;
29344;SDS011;16339;48.748;2.222;2024-02-04T03:31:55;6.05;;;1.63;;
29344;SDS011;16339;48.748;2.222;2024-02-04T03:34:27;15.10;;;2.30;;
29344;SDS011;16339;48.748;2.222;2024-02-04T03:36:55;11.75;;;2.28;;
29344;SDS011;16339;48.748;2.222;2024-02-04T03:39:24;5.70;;;2.97;;
29344;SDS011;16339;48.748;2.222;2024-02-04T03:41:53;11.15;;;2.67;;
29344;SDS011;16339;48.748;2.222;2024-02-04T03:44:25;6.15;;;2.00;;
29344;SDS011;16339;48.748;2.222;2024-02-04T03:46:54;6.30;;;1.98;;
29344;SDS011;16339;48.748;2.222;2024-02-04T03:49:23;7.40;;;1.90;;
29344;SDS011;16339;48.748;2.222;2024-02-04T03:51:51;8.80;;;1.65;;
29344;SDS011;16339;48.748;2.222;2024-02-04T03:54:24;4.25;;;1.73;;
29344;SDS011;16339;48.748;2.222;2024-02-04T03:56:53;3.95;;;1.27;;
29344;SDS011;16339;48.748;2.222;2024-02-04T03:59:22;7.47;;;1.90;;
29344;SDS011;16339;48.748;2.222;2024-02-04T04:01:53;7.35;;;1.90;;
29344;SDS011;16339;48.748;2.222;2024-02-04T04:04:23;6.50;;;1.80;;
29344;SDS011;16339;48.748;2.222;2024-02-04T04:06:51;9.07;;;1.70;;
29344;SDS011;16339;48.748;2.222;2024-02-04T04:09:20;5.88;;;1.67;;
29344;SDS011;16339;48.748;2.222;2024-02-04T04:11:49;4.57;;;1.65;;
29344;SDS011;16339;48.748;2.222;2024-02-04T04:14:17;7.82;;;1.55;;
29344;SDS011;16339;48.748;2.222;2024-02-04T04:16:46;4.50;;;1.85;;
29344;SDS011;16339;48.748;2.222;2024-02-04T04:19:17;3.10;;;1.40;;
29344;SDS011;16339;48.748;2.222;2024-02-04T04:21:46;3.90;;;1.67;;
29344;SDS011;16339;48.748;2.222;2024-02-04T04:24:15;4.57;;;1.30;;
29344;SDS011;16339;48.748;2.222;2024-02-04T04:26:44;4.45;;;2.00;;
29344;SDS011;16339;48.748;2.222;2024-02-04T04:29:13;8.02;;;1.58;;
29344;SDS011;16339;48.748;2.222;2024-02-04T04:31:42;5.75;;;1.30;;
29344;SDS011;16339;48.748;2.222;2024-02-04T04:34:10;3.22;;;1.08;;
29344;SDS011;16339;48.748;2.222;2024-02-04T04:36:42;5.93;;;1.23;;
29344;SDS011;16339;48.748;2.222;2024-02-04T04:39:10;6.70;;;1.30;;
29344;SDS011;16339;48.748;2.222;2024-02-04T04:41:39;3.58;;;1.33;;
29344;SDS011;16339;48.748;2.222;2024-02-04T04:44:08;8.10;;;1.90;;
29344;SDS011;16339;48.748;2.222;2024-02-04T04:46:37;10.18;;;2.30;;
29344;SDS011;16339;48.748;2.222;2024-02-04T04:49:06;4.32;;;2.03;;
29344;SDS011;16339;48.748;2.222;2024-02-04T04:51:35;6.32;;;1.20;;
29344;SDS011;16339;48.748;2.222;2024-02-04T04:54:06;2.53;;;1.05;;
29344;SDS011;16339;48.748;2.222;2024-02-04T04:56:37;4.32;;;1.27;;
29344;SDS011;16339;48.748;2.222;2024-02-04T04:59:06;6.50;;;1.77;;
29344;SDS011;16339;48.748;2.222;2024-02-04T05:01:35;8.35;;;1.10;;
29344;SDS011;16339;48.748;2.222;2024-02-04T05:04:04;2.55;;;1.35;;
29344;SDS011;16339;48.748;2.222;2024-02-04T05:06:32;9.45;;;1.65;;
29344;SDS011;16339;48.748;2.222;2024-02-04T05:09:01;4.28;;;1.40;;
29344;SDS011;16339;48.748;2.222;2024-02-04T05:11:32;10.23;;;1.27;;
29344;SDS011;16339;48.748;2.222;2024-02-04T05:14:01;4.03;;;1.60;;
29344;SDS011;16339;48.748;2.222;2024-02-04T05:16:30;3.75;;;1.90;;
29344;SDS011;16339;48.748;2.222;2024-02-04T05:18:58;3.83;;;1.60;;
29344;SDS011;16339;48.748;2.222;2024-02-04T05:21:27;10.50;;;1.40;;
29344;SDS011;16339;48.748;2.222;2024-02-04T05:23:57;3.35;;;1.25;;
29344;SDS011;16339;48.748;2.222;2024-02-04T05:26:26;3.55;;;1.40;;
29344;SDS011;16339;48.748;2.222;2024-02-04T05:28:57;4.07;;;1.20;;
29344;SDS011;16339;48.748;2.222;2024-02-04T05:31:26;2.83;;;1.30;;
29344;SDS011;16339;48.748;2.222;2024-02-04T05:33:55;7.57;;;1.73;;
29344;SDS011;16339;48.748;2.222;2024-02-04T05:36:24;5.63;;;3.20;;
29344;SDS011;16339;48.748;2.222;2024-02-04T05:38:53;4.38;;;1.73;;
29344;SDS011;16339;48.748;2.222;2024-02-04T05:41:21;6.28;;;2.20;;
29344;SDS011;16339;48.748;2.222;2024-02-04T05:43:50;11.65;;;1.70;;
29344;SDS011;16339;48.748;2.222;2024-02-04T05:46:21;7.20;;;1.40;;
29344;SDS011;16339;48.748;2.222;2024-02-04T05:48:50;2.05;;;1.10;;
29344;SDS011;16339;48.748;2.222;2024-02-04T05:51:18;2.65;;;1.10;;
29344;SDS011;16339;48.748;2.222;2024-02-04T05:53:47;5.82;;;1.38;;
29344;SDS011;16339;48.748;2.222;2024-02-04T05:56:17;4.53;;;2.00;;
29344;SDS011;16339;48.748;2.222;2024-02-04T05:58:45;4.47;;;1.15;;
29344;SDS011;16339;48.748;2.222;2024-02-04T06:01:14;3.03;;;1.20;;
29344;SDS011;16339;48.748;2.222;2024-02-04T06:03:46;5.15;;;2.05;;
29344;SDS011;16339;48.748;2.222;2024-02-04T06:06:15;7.63;;;1.10;;
29344;SDS011;16339;48.748;2.222;2024-02-04T06:08:45;3.75;;;1.40;;
29344;SDS011;16339;48.748;2.222;2024-02-04T06:11:14;5.63;;;1.50;;
29344;SDS011;16339;48.748;2.222;2024-02-04T06:13:44;10.27;;;1.70;;
29344;SDS011;16339;48.748;2.222;2024-02-04T06:16:13;3.08;;;1.20;;
29344;SDS011;16339;48.748;2.222;2024-02-04T06:18:42;8.07;;;1.60;;
29344;SDS011;16339;48.748;2.222;2024-02-04T06:21:13;3.38;;;1.60;;
29344;SDS011;16339;48.748;2.222;2024-02-04T06:23:41;3.53;;;2.30;;
29344;SDS011;16339;48.748;2.222;2024-02-04T06:26:11;3.35;;;1.67;;
29344;SDS011;16339;48.748;2.222;2024-02-04T06:28:40;3.60;;;1.63;;
29344;SDS011;16339;48.748;2.222;2024-02-04T06:31:11;7.20;;;1.40;;
29344;SDS011;16339;48.748;2.222;2024-02-04T06:33:41;10.32;;;1.17;;
29344;SDS011;16339;48.748;2.222;2024-02-04T06:36:12;5.30;;;1.02;;
29344;SDS011;16339;48.748;2.222;2024-02-04T06:38:41;1.30;;;0.80;;
29344;SDS011;16339;48.748;2.222;2024-02-04T06:41:10;1.85;;;1.13;;
29344;SDS011;16339;48.748;2.222;2024-02-04T06:43:41;7.75;;;1.20;;
29344;SDS011;16339;48.748;2.222;2024-02-04T06:46:09;5.38;;;1.45;;
29344;SDS011;16339;48.748;2.222;2024-02-04T06:48:38;3.85;;;1.75;;
29344;SDS011;16339;48.748;2.222;2024-02-04T06:51:06;7.15;;;1.33;;
29344;SDS011;16339;48.748;2.222;2024-02-04T06:53:38;3.75;;;1.05;;
29344;SDS011;16339;48.748;2.222;2024-02-04T06:56:06;1.38;;;0.95;;
29344;SDS011;16339;48.748;2.222;2024-02-04T06:58:36;6.22;;;1.15;;
29344;SDS011;16339;48.748;2.222;2024-02-04T07:01:05;2.20;;;1.10;;
29344;SDS011;16339;48.748;2.222;2024-02-04T07:03:34;3.63;;;1.20;;
29344;SDS011;16339;48.748;2.222;2024-02-04T07:06:03;2.05;;;1.15;;
29344;SDS011;16339;48.748;2.222;2024-02-04T07:08:32;7.50;;;1.10;;
29344;SDS011;16339;48.748;2.222;2024-02-04T07:11:06;1.33;;;1.10;;
29344;SDS011;16339;48.748;2.222;2024-02-04T07:16:06;3.80;;;1.33;;
29344;SDS011;16339;48.748;2.222;2024-02-04T07:18:34;7.65;;;1.17;;
29344;SDS011;16339;48.748;2.222;2024-02-04T07:21:03;3.70;;;1.30;;
29344;SDS011;16339;48.748;2.222;2024-02-04T07:23:32;8.50;;;1.58;;
29344;SDS011;16339;48.748;2.222;2024-02-04T07:26:01;1.95;;;1.23;;
29344;SDS011;16339;48.748;2.222;2024-02-04T07:28:32;5.68;;;1.58;;
29344;SDS011;16339;48.748;2.222;2024-02-04T07:31:01;5.50;;;1.63;;
29344;SDS011;16339;48.748;2.222;2024-02-04T07:33:29;1.48;;;1.10;;
29344;SDS011;16339;48.748;2.222;2024-02-04T07:35:58;5.53;;;1.20;;
29344;SDS011;16339;48.748;2.222;2024-02-04T07:38:29;2.03;;;1.08;;
29344;SDS011;16339;48.748;2.222;2024-02-04T07:40:58;6.38;;;1.33;;
29344;SDS011;16339;48.748;2.222;2024-02-04T07:43:27;2.53;;;1.20;;
29344;SDS011;16339;48.748;2.222;2024-02-04T07:45:58;3.90;;;1.40;;
29344;SDS011;16339;48.748;2.222;2024-02-04T07:48:27;4.90;;;1.38;;
29344;SDS011;16339;48.748;2.222;2024-02-04T07:50:56;4.78;;;1.48;;
29344;SDS011;16339;48.748;2.222;2024-02-04T07:53:25;2.63;;;1.20;;
29344;SDS011;16339;48.748;2.222;2024-02-04T07:55:54;8.13;;;3.97;;
29344;SDS011;16339;48.748;2.222;2024-02-04T07:58:23;4.93;;;1.25;;
29344;SDS011;16339;48.748;2.222;2024-02-04T08:00:55;4.82;;;1.55;;
29344;SDS011;16339;48.748;2.222;2024-02-04T08:03:26;2.88;;;1.48;;
29344;SDS011;16339;48.748;2.222;2024-02-04T08:05:55;2.45;;;1.65;;
29344;SDS011;16339;48.748;2.222;2024-02-04T08:08:25;3.45;;;1.30;;
29344;SDS011;16339;48.748;2.222;2024-02-04T08:10:54;5.70;;;1.52;;
29344;SDS011;16339;48.748;2.222;2024-02-04T08:13:24;3.63;;;1.35;;
29344;SDS011;16339;48.748;2.222;2024-02-04T08:15:57;1.60;;;1.40;;
29344;SDS011;16339;48.748;2.222;2024-02-04T08:18:34;2.47;;;1.60;;
29344;SDS011;16339;48.748;2.222;2024-02-04T08:21:03;5.10;;;1.85;;
29344;SDS011;16339;48.748;2.222;2024-02-04T08:23:32;2.97;;;1.33;;
29344;SDS011;16339;48.748;2.222;2024-02-04T08:26:01;2.30;;;1.20;;
29344;SDS011;16339;48.748;2.222;2024-02-04T08:28:29;6.93;;;1.48;;
29344;SDS011;16339;48.748;2.222;2024-02-04T08:30:58;4.30;;;1.70;;
29344;SDS011;16339;48.748;2.222;2024-02-04T08:33:29;7.10;;;2.70;;
29344;SDS011;16339;48.748;2.222;2024-02-04T08:36:00;6.10;;;2.10;;
29344;SDS011;16339;48.748;2.222;2024-02-04T08:38:32;5.45;;;1.83;;
29344;SDS011;16339;48.748;2.222;2024-02-04T08:41:00;3.03;;;1.35;;
29344;SDS011;16339;48.748;2.222;2024-02-04T08:43:26;3.72;;;1.30;;
29344;SDS011;16339;48.748;2.222;2024-02-04T08:45:55;3.30;;;1.30;;
29344;SDS011;16339;48.748;2.222;2024-02-04T08:48:24;1.27;;;1.17;;
29344;SDS011;16339;48.748;2.222;2024-02-04T08:50:55;4.03;;;1.30;;
29344;SDS011;16339;48.748;2.222;2024-02-04T08:53:28;2.73;;;1.30;;
29344;SDS011;16339;48.748;2.222;2024-02-04T08:55:57;5.25;;;2.25;;
29344;SDS011;16339;48.748;2.222;2024-02-04T08:58:25;3.30;;;1.02;;
29344;SDS011;16339;48.748;2.222;2024-02-04T09:00:56;4.30;;;1.10;;
29344;SDS011;16339;48.748;2.222;2024-02-04T09:03:25;2.58;;;1.52;;
29344;SDS011;16339;48.748;2.222;2024-02-04T09:05:54;4.68;;;1.50;;
29344;SDS011;16339;48.748;2.222;2024-02-04T09:08:23;6.82;;;3.42;;
29344;SDS011;16339;48.748;2.222;2024-02-04T09:10:54;3.83;;;1.42;;
29344;SDS011;16339;48.748;2.222;2024-02-04T09:13:23;3.33;;;1.17;;
29344;SDS011;16339;48.748;2.222;2024-02-04T09:15:53;1.38;;;0.98;;
29344;SDS011;16339;48.748;2.222;2024-02-04T09:18:22;3.97;;;1.42;;
29344;SDS011;16339;48.748;2.222;2024-02-04T09:20:54;2.40;;;1.20;;
29344;SDS011;16339;48.748;2.222;2024-02-04T09:23:23;3.22;;;1.20;;
29344;SDS011;16339;48.748;2.222;2024-02-04T09:25:54;2.35;;;0.95;;
29344;SDS011;16339;48.748;2.222;2024-02-04T09:28:23;2.03;;;1.17;;
29344;SDS011;16339;48.748;2.222;2024-02-04T09:30:51;2.42;;;1.15;;
29344;SDS011;16339;48.748;2.222;2024-02-04T09:33:20;1.42;;;1.10;;
29344;SDS011;16339;48.748;2.222;2024-02-04T09:35:49;4.57;;;2.17;;
29344;SDS011;16339;48.748;2.222;2024-02-04T09:38:17;1.52;;;1.00;;
29344;SDS011;16339;48.748;2.222;2024-02-04T09:40:48;1.77;;;0.93;;
29344;SDS011;16339;48.748;2.222;2024-02-04T09:43:19;2.38;;;1.00;;
29344;SDS011;16339;48.748;2.222;2024-02-04T09:45:48;3.60;;;0.70;;
29344;SDS011;16339;48.748;2.222;2024-02-04T09:48:17;5.03;;;1.10;;
29344;SDS011;16339;48.748;2.222;2024-02-04T09:53:19;4.88;;;1.20;;
29344;SDS011;16339;48.748;2.222;2024-02-04T09:55:53;2.22;;;1.30;;
29344;SDS011;16339;48.748;2.222;2024-02-04T09:58:28;7.18;;;0.90;;
29344;SDS011;16339;48.748;2.222;2024-02-04T10:00:56;1.55;;;0.93;;
29344;SDS011;16339;48.748;2.222;2024-02-04T10:03:27;4.15;;;0.80;;
29344;SDS011;16339;48.748;2.222;2024-02-04T10:05:56;1.25;;;0.80;;
29344;SDS011;16339;48.748;2.222;2024-02-04T10:08:25;0.50;;;0.50;;
29344;SDS011;16339;48.748;2.222;2024-02-04T10:10:53;2.60;;;0.70;;
29344;SDS011;16339;48.748;2.222;2024-02-04T10:13:23;0.80;;;0.60;;
29344;SDS011;16339;48.748;2.222;2024-02-04T10:15:55;1.58;;;0.63;;
29344;SDS011;16339;48.748;2.222;2024-02-04T10:18:24;1.88;;;0.50;;
29344;SDS011;16339;48.748;2.222;2024-02-04T10:20:52;2.70;;;0.82;;
29344;SDS011;16339;48.748;2.222;2024-02-04T10:23:21;1.48;;;0.55;;
29344;SDS011;16339;48.748;2.222;2024-02-04T10:25:56;1.52;;;0.80;;
29344;SDS011;16339;48.748;2.222;2024-02-04T10:28:26;0.98;;;0.57;;
29344;SDS011;16339;48.748;2.222;2024-02-04T10:30:57;1.48;;;0.68;;
29344;SDS011;16339;48.748;2.222;2024-02-04T10:33:26;0.57;;;0.50;;
29344;SDS011;16339;48.748;2.222;2024-02-04T10:38:26;1.48;;;0.60;;
29344;SDS011;16339;48.748;2.222;2024-02-04T10:40:54;0.77;;;0.52;;
29344;SDS011;16339;48.748;2.222;2024-02-04T10:43:23;0.80;;;0.63;;
29344;SDS011;16339;48.748;2.222;2024-02-04T10:45:55;1.45;;;0.57;;
29344;SDS011;16339;48.748;2.222;2024-02-04T10:48:29;0.68;;;0.40;;
29344;SDS011;16339;48.748;2.222;2024-02-04T10:51:07;1.45;;;0.70;;
29344;SDS011;16339;48.748;2.222;2024-02-04T10:53:41;5.00;;;0.90;;
29344;SDS011;16339;48.748;2.222;2024-02-04T10:56:13;1.65;;;0.75;;
29344;SDS011;16339;48.748;2.222;2024-02-04T10:58:48;2.13;;;0.60;;
29344;SDS011;16339;48.748;2.222;2024-02-04T11:01:21;0.75;;;0.60;;
29344;SDS011;16339;48.748;2.222;2024-02-04T11:03:51;1.38;;;0.65;;
29344;SDS011;16339;48.748;2.222;2024-02-04T11:06:22;0.73;;;0.47;;
29344;SDS011;16339;48.748;2.222;2024-02-04T11:08:51;0.38;;;0.30;;
29344;SDS011;16339;48.748;2.222;2024-02-04T11:11:21;3.78;;;0.52;;
29344;SDS011;16339;48.748;2.222;2024-02-04T11:13:53;3.43;;;0.40;;
29344;SDS011;16339;48.748;2.222;2024-02-04T11:16:31;1.55;;;0.40;;
29344;SDS011;16339;48.748;2.222;2024-02-04T11:19:17;0.90;;;0.55;;
29344;SDS011;16339;48.748;2.222;2024-02-04T11:22:04;4.22;;;0.52;;
29344;SDS011;16339;48.748;2.222;2024-02-04T11:24:53;1.65;;;0.57;;
29344;SDS011;16339;48.748;2.222;2024-02-04T11:27:36;0.87;;;0.40;;
29344;SDS011;16339;48.748;2.222;2024-02-04T11:30:06;1.98;;;0.45;;
29344;SDS011;16339;48.748;2.222;2024-02-04T11:32:38;1.48;;;0.60;;
29344;SDS011;16339;48.748;2.222;2024-02-04T11:35:08;0.88;;;0.50;;
29344;SDS011;16339;48.748;2.222;2024-02-04T11:37:38;0.50;;;0.50;;
29344;SDS011;16339;48.748;2.222;2024-02-04T11:42:44;1.02;;;0.70;;
29344;SDS011;16339;48.748;2.222;2024-02-04T11:45:15;0.45;;;0.45;;
29344;SDS011;16339;48.748;2.222;2024-02-04T11:47:47;2.35;;;0.45;;
29344;SDS011;16339;48.748;2.222;2024-02-04T11:50:25;0.30;;;0.30;;
29344;SDS011;16339;48.748;2.222;2024-02-04T11:53:05;0.40;;;0.40;;
29344;SDS011;16339;48.748;2.222;2024-02-04T11:55:34;0.40;;;0.40;;
29344;SDS011;16339;48.748;2.222;2024-02-04T11:58:04;0.40;;;0.40;;
29344;SDS011;16339;48.748;2.222;2024-02-04T12:00:34;1.13;;;0.60;;
29344;SDS011;16339;48.748;2.222;2024-02-04T12:03:07;1.38;;;0.70;;
29344;SDS011;16339;48.748;2.222;2024-02-04T12:05:36;0.63;;;0.50;;
29344;SDS011;16339;48.748;2.222;2024-02-04T12:08:06;2.78;;;0.40;;
29344;SDS011;16339;48.748;2.222;2024-02-04T12:10:35;0.65;;;0.45;;
29344;SDS011;16339;48.748;2.222;2024-02-04T12:13:05;1.10;;;0.40;;
29344;SDS011;16339;48.748;2.222;2024-02-04T12:15:34;0.30;;;0.22;;
29344;SDS011;16339;48.748;2.222;2024-02-04T12:18:10;2.47;;;0.35;;
29344;SDS011;16339;48.748;2.222;2024-02-04T12:20:39;2.05;;;0.60;;
29344;SDS011;16339;48.748;2.222;2024-02-04T12:23:08;1.10;;;0.38;;
29344;SDS011;16339;48.748;2.222;2024-02-04T12:25:37;0.85;;;0.22;;
29344;SDS011;16339;48.748;2.222;2024-02-04T12:28:05;0.50;;;0.50;;
29344;SDS011;16339;48.748;2.222;2024-02-04T12:30:34;0.38;;;0.38;;
29344;SDS011;16339;48.748;2.222;2024-02-04T12:33:05;4.38;;;0.45;;
29344;SDS011;16339;48.748;2.222;2024-02-04T12:35:37;0.95;;;0.30;;
29344;SDS011;16339;48.748;2.222;2024-02-04T12:38:06;1.15;;;0.45;;
29344;SDS011;16339;48.748;2.222;2024-02-04T12:40:35;6.13;;;0.50;;
29344;SDS011;16339;48.748;2.222;2024-02-04T12:43:03;0.20;;;0.20;;
29344;SDS011;16339;48.748;2.222;2024-02-04T12:45:34;0.50;;;0.50;;
29344;SDS011;16339;48.748;2.222;2024-02-04T12:48:03;0.40;;;0.28;;
29344;SDS011;16339;48.748;2.222;2024-02-04T12:50:36;1.50;;;0.50;;
29344;SDS011;16339;48.748;2.222;2024-02-04T12:53:06;0.65;;;0.43;;
29344;SDS011;16339;48.748;2.222;2024-02-04T12:55:36;0.30;;;0.30;;
29344;SDS011;16339;48.748;2.222;2024-02-04T12:58:08;1.30;;;0.40;;
29344;SDS011;16339;48.748;2.222;2024-02-04T13:00:39;0.50;;;0.50;;
29344;SDS011;16339;48.748;2.222;2024-02-04T13:03:08;0.40;;;0.40;;
29344;SDS011;16339;48.748;2.222;2024-02-04T13:05:40;1.00;;;0.50;;
29344;SDS011;16339;48.748;2.222;2024-02-04T13:08:10;0.47;;;0.40;;
29344;SDS011;16339;48.748;2.222;2024-02-04T13:10:39;0.63;;;0.60;;
29344;SDS011;16339;48.748;2.222;2024-02-04T13:13:09;3.45;;;0.50;;
29344;SDS011;16339;48.748;2.222;2024-02-04T13:15:39;0.50;;;0.50;;
29344;SDS011;16339;48.748;2.222;2024-02-04T13:18:09;3.25;;;0.68;;
29344;SDS011;16339;48.748;2.222;2024-02-04T13:20:43;1.67;;;0.68;;
29344;SDS011;16339;48.748;2.222;2024-02-04T13:23:13;1.35;;;0.63;;
29344;SDS011;16339;48.748;2.222;2024-02-04T13:25:43;3.85;;;0.55;;
29344;SDS011;16339;48.748;2.222;2024-02-04T13:28:12;9.40;;;0.80;;
29344;SDS011;16339;48.748;2.222;2024-02-04T13:30:41;2.15;;;0.40;;
29344;SDS011;16339;48.748;2.222;2024-02-04T13:33:09;3.38;;;0.88;;
29344;SDS011;16339;48.748;2.222;2024-02-04T13:35:39;1.48;;;0.45;;
29344;SDS011;16339;48.748;2.222;2024-02-04T13:38:10;2.70;;;0.55;;
29344;SDS011;16339;48.748;2.222;2024-02-04T13:43:07;2.20;;;0.70;;
29344;SDS011;16339;48.748;2.222;2024-02-04T13:45:36;1.10;;;0.60;;
29344;SDS011;16339;48.748;2.222;2024-02-04T13:48:05;12.65;;;1.00;;
29344;SDS011;16339;48.748;2.222;2024-02-04T13:50:34;3.53;;;1.65;;
29344;SDS011;16339;48.748;2.222;2024-02-04T13:53:03;1.55;;;0.90;;
29344;SDS011;16339;48.748;2.222;2024-02-04T13:55:35;8.13;;;1.08;;
29344;SDS011;16339;48.748;2.222;2024-02-04T13:58:04;1.85;;;0.75;;
29344;SDS011;16339;48.748;2.222;2024-02-04T14:00:34;1.70;;;0.85;;
29344;SDS011;16339;48.748;2.222;2024-02-04T14:03:03;1.27;;;0.82;;
29344;SDS011;16339;48.748;2.222;2024-02-04T14:05:34;5.57;;;0.90;;
29344;SDS011;16339;48.748;2.222;2024-02-04T14:08:03;3.35;;;0.85;;
29344;SDS011;16339;48.748;2.222;2024-02-04T14:10:34;2.20;;;0.70;;
29344;SDS011;16339;48.748;2.222;2024-02-04T14:13:03;6.57;;;1.27;;
29344;SDS011;16339;48.748;2.222;2024-02-04T14:15:34;1.13;;;0.63;;
29344;SDS011;16339;48.748;2.222;2024-02-04T14:18:05;3.88;;;0.60;;
29344;SDS011;16339;48.748;2.222;2024-02-04T14:20:34;1.90;;;0.85;;
29344;SDS011;16339;48.748;2.222;2024-02-04T14:23:05;1.23;;;0.90;;
29344;SDS011;16339;48.748;2.222;2024-02-04T14:25:36;1.88;;;0.73;;
29344;SDS011;16339;48.748;2.222;2024-02-04T14:30:34;0.63;;;0.60;;
29344;SDS011;16339;48.748;2.222;2024-02-04T14:33:03;1.77;;;0.75;;
29344;SDS011;16339;48.748;2.222;2024-02-04T14:35:29;3.03;;;0.93;;
29344;SDS011;16339;48.748;2.222;2024-02-04T14:37:58;6.38;;;0.93;;
29344;SDS011;16339;48.748;2.222;2024-02-04T14:40:27;1.58;;;0.95;;
29344;SDS011;16339;48.748;2.222;2024-02-04T14:42:58;1.92;;;1.10;;
29344;SDS011;16339;48.748;2.222;2024-02-04T14:47:56;5.00;;;1.00;;
29344;SDS011;16339;48.748;2.222;2024-02-04T14:50:24;3.58;;;0.80;;
29344;SDS011;16339;48.748;2.222;2024-02-04T14:52:53;8.13;;;1.08;;
29344;SDS011;16339;48.748;2.222;2024-02-04T14:55:21;5.78;;;1.35;;
29344;SDS011;16339;48.748;2.222;2024-02-04T14:57:50;5.20;;;1.60;;
29344;SDS011;16339;48.748;2.222;2024-02-04T15:00:22;1.25;;;1.00;;
29344;SDS011;16339;48.748;2.222;2024-02-04T15:02:54;2.55;;;1.23;;
29344;SDS011;16339;48.748;2.222;2024-02-04T15:05:23;4.82;;;1.20;;
29344;SDS011;16339;48.748;2.222;2024-02-04T15:07:51;8.88;;;1.70;;
29344;SDS011;16339;48.748;2.222;2024-02-04T15:10:20;1.00;;;0.90;;
29344;SDS011;16339;48.748;2.222;2024-02-04T15:12:49;2.22;;;1.38;;
29344;SDS011;16339;48.748;2.222;2024-02-04T15:15:22;3.67;;;1.20;;
29344;SDS011;16339;48.748;2.222;2024-02-04T15:17:52;7.25;;;1.73;;
29344;SDS011;16339;48.748;2.222;2024-02-04T15:20:21;2.35;;;1.30;;
29344;SDS011;16339;48.748;2.222;2024-02-04T15:22:51;3.97;;;1.50;;
29344;SDS011;16339;48.748;2.222;2024-02-04T15:25:21;4.57;;;1.30;;
29344;SDS011;16339;48.748;2.222;2024-02-04T15:27:51;2.72;;;1.17;;